createdAt,value
2023-02-13T00:00:01.198Z,94521.00
2023-02-13T00:01:01.279Z,94521.00
2023-02-13T00:02:02.023Z,94521.00
2023-02-13T00:03:01.423Z,94519.00
2023-02-13T00:04:01.520Z,94517.00
2023-02-13T00:05:01.629Z,94516.00
2023-02-13T00:06:01.673Z,94516.00
2023-02-13T00:07:01.756Z,94514.00
2023-02-13T00:08:01.839Z,94516.00
2023-02-13T00:09:01.918Z,94516.00
2023-02-13T00:10:02.014Z,94517.00
2023-02-13T00:11:02.089Z,94516.00
2023-02-13T00:12:02.169Z,94514.00
2023-02-13T00:13:02.252Z,94514.00
2023-02-13T00:14:02.337Z,94510.00
2023-02-13T00:15:02.431Z,94510.00
2023-02-13T00:16:02.519Z,94510.00
2023-02-13T00:17:02.582Z,94510.00
2023-02-13T00:18:02.673Z,94510.00
2023-02-13T00:19:02.754Z,94510.00
2023-02-13T00:20:02.929Z,94508.00
2023-02-13T00:21:02.923Z,94508.00
2023-02-13T00:22:02.997Z,94504.00
2023-02-13T00:23:03.086Z,94510.00
2023-02-13T00:24:03.170Z,94510.00
2023-02-13T00:25:03.999Z,94506.00
2023-02-13T00:26:03.513Z,94504.00
2023-02-13T00:27:03.427Z,94504.00
2023-02-13T00:28:03.566Z,94508.00
2023-02-13T00:29:03.585Z,94506.00
2023-02-13T00:30:03.679Z,94506.00
2023-02-13T00:31:03.836Z,94504.00
2023-02-13T00:32:03.927Z,94504.00
2023-02-13T00:33:03.928Z,94504.00
2023-02-13T00:34:04.000Z,94500.00
2023-02-13T00:35:04.080Z,94502.00
2023-02-13T00:36:04.189Z,94502.00
2023-02-13T00:37:04.251Z,94502.00
2023-02-13T00:38:04.325Z,94504.00
2023-02-13T00:39:04.414Z,94506.00
2023-02-13T00:40:04.503Z,94508.00
2023-02-13T00:41:04.600Z,94506.00
2023-02-13T00:42:04.662Z,94508.00
2023-02-13T00:43:04.743Z,94506.00
2023-02-13T00:44:04.888Z,94506.00
2023-02-13T00:45:04.917Z,94508.00
2023-02-13T00:46:05.050Z,94506.00
2023-02-13T00:47:05.081Z,94506.00
2023-02-13T00:48:05.147Z,94506.00
2023-02-13T00:49:05.227Z,94504.00
2023-02-13T00:50:05.318Z,94504.00
2023-02-13T00:51:05.416Z,94506.00
2023-02-13T00:52:05.511Z,94504.00
2023-02-13T00:53:05.592Z,94502.00
2023-02-13T00:54:05.645Z,94504.00
2023-02-13T00:55:05.732Z,94502.00
2023-02-13T00:56:06.026Z,94504.00
2023-02-13T00:57:05.895Z,94504.00
2023-02-13T00:58:06.035Z,94504.00
2023-02-13T00:59:06.075Z,94504.00
2023-02-13T01:00:06.157Z,94506.00
2023-02-13T01:01:06.240Z,94506.00
2023-02-13T01:02:06.376Z,94506.00
2023-02-13T01:03:06.411Z,94508.00
2023-02-13T01:04:06.590Z,94510.00
2023-02-13T01:05:06.585Z,94510.00
2023-02-13T01:06:06.684Z,94512.00
2023-02-13T01:07:06.744Z,94508.00
2023-02-13T01:08:06.831Z,94508.00
2023-02-13T01:09:06.938Z,94510.00
2023-02-13T01:10:07.058Z,94506.00
2023-02-13T01:11:07.095Z,94506.00
2023-02-13T01:12:07.173Z,94508.00
2023-02-13T01:13:07.507Z,94506.00
2023-02-13T01:14:07.393Z,94504.00
2023-02-13T01:15:07.417Z,94500.00
2023-02-13T01:16:07.576Z,94498.00
2023-02-13T01:17:07.595Z,94500.00
2023-02-13T01:18:07.680Z,94500.00
2023-02-13T01:19:07.770Z,94500.00
2023-02-13T01:20:07.858Z,94500.00
2023-02-13T01:21:07.964Z,94496.00
2023-02-13T01:22:08.014Z,94498.00
2023-02-13T01:23:08.105Z,94500.00
2023-02-13T01:24:08.196Z,94498.00
2023-02-13T01:25:08.278Z,94500.00
2023-02-13T01:26:08.378Z,94500.00
2023-02-13T02:44:15.212Z,94472.00
2023-02-13T02:45:15.307Z,94470.00
2023-02-13T02:46:15.529Z,94470.00
2023-02-13T02:47:15.487Z,94470.00
2023-02-13T02:48:15.620Z,94470.00
2023-02-13T02:49:15.662Z,94470.00
2023-02-13T02:50:15.765Z,94470.00
2023-02-13T02:51:15.847Z,94470.00
2023-02-13T02:52:16.012Z,94467.00
2023-02-13T02:53:16.030Z,94465.00
2023-02-13T02:55:16.270Z,94459.00
2023-02-13T02:56:16.325Z,94457.00
2023-02-13T02:57:16.402Z,94461.00
2023-02-13T05:14:25.169Z,94517.00
2023-02-13T05:15:25.445Z,94523.00
2023-02-13T05:16:25.286Z,94521.00
2023-02-13T06:09:28.723Z,94539.00
2023-02-13T07:51:35.164Z,94586.00
2023-02-13T07:52:35.223Z,94584.00
2023-02-13T07:53:35.296Z,94584.00
2023-02-13T07:54:35.388Z,94582.00
2023-02-13T08:11:36.582Z,94572.00
2023-02-13T08:12:36.656Z,94572.00
2023-02-13T08:13:36.688Z,94578.00
2023-02-13T08:15:36.818Z,94574.00
2023-02-13T08:17:36.982Z,94566.00
2023-02-13T08:18:37.037Z,94564.00
2023-02-13T08:19:37.089Z,94568.00
2023-02-13T08:33:38.068Z,94564.00
2023-02-13T10:32:45.133Z,94480.00
2023-02-13T10:33:45.206Z,94480.00
2023-02-13T10:34:45.295Z,94478.00
2023-02-13T10:35:45.313Z,94478.00
2023-02-13T10:36:45.374Z,94476.00
2023-02-13T10:37:45.425Z,94476.00
2023-02-13T10:38:45.490Z,94474.00
2023-02-13T10:39:45.544Z,94470.00
2023-02-13T10:40:45.613Z,94470.00
2023-02-13T10:41:45.654Z,94469.00
2023-02-13T10:42:45.717Z,94467.00
2023-02-13T10:43:45.786Z,94469.00
2023-02-13T10:44:45.944Z,94463.00
2023-02-13T10:45:45.886Z,94463.00
2023-02-13T10:46:46.037Z,94465.00
2023-02-13T10:47:46.008Z,94461.00
2023-02-13T10:48:46.059Z,94463.00
2023-02-13T10:49:46.143Z,94461.00
2023-02-13T10:50:46.166Z,94461.00
2023-02-13T10:51:46.227Z,94461.00
2023-02-13T10:52:46.298Z,94463.00
2023-02-13T10:53:46.340Z,94461.00
2023-02-13T10:54:46.394Z,94457.00
2023-02-13T10:55:46.457Z,94453.00
2023-02-13T10:56:46.574Z,94449.00
2023-02-13T10:57:46.554Z,94451.00
2023-02-13T10:58:46.618Z,94447.00
2023-02-13T10:59:46.666Z,94445.00
2023-02-13T11:00:46.696Z,94443.00
2023-02-13T11:01:46.794Z,94445.00
2023-02-13T11:02:46.844Z,94441.00
2023-02-13T11:03:46.837Z,94441.00
2023-02-13T11:04:46.892Z,94439.00
2023-02-13T11:05:46.946Z,94437.00
2023-02-13T11:06:46.974Z,94437.00
2023-02-13T11:07:47.017Z,94435.00
2023-02-13T11:08:47.105Z,94433.00
2023-02-13T11:09:47.159Z,94433.00
2023-02-13T11:10:47.199Z,94429.00
2023-02-13T11:11:47.202Z,94429.00
2023-02-13T11:12:47.257Z,94427.00
2023-02-13T11:13:47.300Z,94427.00
2023-02-13T11:14:47.388Z,94425.00
2023-02-13T11:15:47.402Z,94423.00
2023-02-13T11:16:47.424Z,94421.00
2023-02-13T11:17:47.466Z,94423.00
2023-02-13T11:18:47.493Z,94419.00
2023-02-13T11:19:47.529Z,94418.00
2023-02-13T11:20:47.567Z,94414.00
2023-02-13T11:21:47.612Z,94414.00
2023-02-13T11:22:47.639Z,94412.00
2023-02-13T11:23:47.692Z,94410.00
2023-02-13T11:24:47.722Z,94410.00
2023-02-13T11:25:47.732Z,94410.00
2023-02-13T11:26:47.779Z,94408.00
2023-02-13T11:27:47.799Z,94404.00
2023-02-13T11:28:47.843Z,94404.00
2023-02-13T11:29:47.864Z,94402.00
2023-02-13T11:30:47.989Z,94400.00
2023-02-13T11:31:48.520Z,94398.00
2023-02-13T11:32:47.947Z,94400.00
2023-02-13T11:33:47.984Z,94396.00
2023-02-13T11:34:48.015Z,94394.00
2023-02-13T11:35:48.057Z,94394.00
2023-02-13T11:36:48.083Z,94392.00
2023-02-13T11:37:48.096Z,94392.00
2023-02-13T11:38:48.125Z,94392.00
2023-02-13T11:39:50.200Z,94392.00
2023-02-13T11:40:48.170Z,94388.00
2023-02-13T11:41:48.182Z,94386.00
2023-02-13T11:42:48.921Z,94384.00
2023-02-13T11:43:48.224Z,94386.00
2023-02-13T11:44:48.233Z,94386.00
2023-02-13T11:45:48.261Z,94386.00
2023-02-13T11:46:48.980Z,94384.00
2023-02-13T11:47:48.295Z,94384.00
2023-02-13T11:48:48.312Z,94374.00
2023-02-13T11:49:48.340Z,94376.00
2023-02-13T11:50:48.352Z,94376.00
2023-02-13T11:51:48.395Z,94372.00
2023-02-13T11:52:48.395Z,94374.00
2023-02-13T11:53:48.407Z,94370.00
2023-02-13T11:54:48.441Z,94370.00
2023-02-13T11:55:48.460Z,94372.00
2023-02-13T11:57:03.143Z,94372.00
2023-02-13T11:57:49.498Z,94370.00
2023-02-13T11:58:48.544Z,94370.00
2023-02-13T11:59:48.542Z,94367.00
2023-02-13T12:00:48.563Z,94369.00
2023-02-13T12:01:48.590Z,94367.00
2023-02-13T12:02:49.045Z,94365.00
2023-02-13T12:03:48.729Z,94365.00
2023-02-13T12:04:49.658Z,94363.00
2023-02-13T12:05:48.667Z,94361.00
2023-02-13T12:06:49.431Z,94359.00
2023-02-13T12:07:48.698Z,94361.00
2023-02-13T12:08:49.434Z,94361.00
2023-02-13T12:09:48.751Z,94359.00
2023-02-13T12:10:48.766Z,94357.00
2023-02-13T12:11:48.794Z,94355.00
2023-02-13T12:12:48.797Z,94353.00
2023-02-13T12:13:48.815Z,94351.00
2023-02-13T12:14:48.840Z,94349.00
2023-02-13T12:15:48.846Z,94347.00
2023-02-13T12:16:48.881Z,94349.00
2023-02-13T12:17:48.885Z,94347.00
2023-02-13T15:18:55.161Z,94273.00
2023-02-13T15:20:55.195Z,94275.00
2023-02-13T15:21:55.206Z,94278.00
2023-02-13T15:22:55.219Z,94276.00
2023-02-13T15:28:55.412Z,94276.00
2023-02-13T15:29:55.484Z,94278.00
2023-02-13T15:30:55.669Z,94276.00
2023-02-13T15:32:55.539Z,94280.00
2023-02-13T15:33:55.600Z,94280.00
2023-02-13T15:34:55.603Z,94278.00
2023-02-13T15:35:55.639Z,94280.00
2023-02-13T15:36:55.666Z,94280.00
2023-02-13T15:37:55.706Z,94282.00
2023-02-13T15:38:55.731Z,94280.00
2023-02-13T15:39:55.777Z,94280.00
2023-02-13T15:40:55.944Z,94284.00
2023-02-13T15:41:55.841Z,94284.00
2023-02-13T15:42:55.910Z,94286.00
2023-02-13T15:43:55.926Z,94286.00
2023-02-13T15:44:56.044Z,94288.00
2023-02-13T15:45:56.011Z,94286.00
2023-02-13T15:46:56.029Z,94290.00
2023-02-13T16:11:56.935Z,94316.00
2023-02-13T18:35:05.160Z,94519.00
2023-02-13T18:36:05.220Z,94519.00
2023-02-13T18:37:05.274Z,94521.00
2023-02-13T18:38:05.344Z,94521.00
2023-02-13T18:39:05.396Z,94523.00
2023-02-13T18:40:05.460Z,94521.00
2023-02-13T18:41:05.543Z,94523.00
2023-02-13T18:42:05.585Z,94521.00
2023-02-13T18:43:05.653Z,94521.00
2023-02-13T18:44:05.728Z,94523.00
2023-02-13T18:45:05.772Z,94523.00
2023-02-13T18:46:05.899Z,94521.00
2023-02-13T18:47:05.914Z,94523.00
2023-02-13T18:48:08.283Z,94523.00
2023-02-13T18:49:06.013Z,94525.00
2023-02-13T18:50:06.049Z,94523.00
2023-02-13T18:51:06.067Z,94523.00
2023-02-13T18:52:06.099Z,94523.00
2023-02-13T18:53:06.134Z,94527.00
2023-02-13T18:54:06.176Z,94527.00
2023-02-13T18:55:06.184Z,94525.00
2023-02-13T18:57:06.263Z,94525.00
2023-02-13T18:58:06.264Z,94525.00
2023-02-13T18:59:06.287Z,94529.00
2023-02-13T19:00:06.358Z,94525.00
2023-02-13T19:01:06.365Z,94527.00
2023-02-13T19:02:06.430Z,94527.00
2023-02-13T19:03:06.391Z,94529.00
2023-02-13T19:04:06.422Z,94529.00
2023-02-13T19:05:06.451Z,94527.00
2023-02-13T19:07:06.513Z,94529.00
2023-02-13T19:08:06.537Z,94529.00
2023-02-13T19:09:06.563Z,94531.00
2023-02-13T19:10:06.592Z,94533.00
2023-02-13T19:11:06.640Z,94531.00
2023-02-13T19:13:06.685Z,94531.00
2023-02-13T19:14:06.718Z,94535.00
2023-02-13T19:15:06.753Z,94537.00
2023-02-13T19:16:06.788Z,94539.00
2023-02-13T19:17:06.806Z,94539.00
2023-02-13T19:18:06.818Z,94539.00
2023-02-13T19:19:06.855Z,94541.00
2023-02-13T19:20:06.872Z,94543.00
2023-02-13T19:21:06.966Z,94545.00
2023-02-13T19:22:06.922Z,94545.00
2023-02-13T19:23:06.964Z,94545.00
2023-02-13T19:24:06.982Z,94545.00
2023-02-13T19:25:07.017Z,94545.00
2023-02-13T19:26:07.029Z,94547.00
2023-02-13T19:27:07.052Z,94547.00
2023-02-13T19:28:07.072Z,94545.00
2023-02-13T19:29:07.130Z,94547.00
2023-02-13T19:30:07.187Z,94545.00
2023-02-13T19:31:08.657Z,94545.00
2023-02-13T19:32:07.908Z,94547.00
2023-02-13T19:33:07.203Z,94545.00
2023-02-13T19:34:07.252Z,94547.00
2023-02-13T19:35:07.256Z,94547.00
2023-02-13T19:36:07.284Z,94549.00
2023-02-13T19:37:07.298Z,94549.00
2023-02-13T19:38:07.382Z,94549.00
2023-02-13T19:39:07.345Z,94551.00
2023-02-13T19:40:07.427Z,94551.00
2023-02-13T19:41:07.414Z,94553.00
2023-02-13T19:42:07.423Z,94553.00
2023-02-13T19:43:07.443Z,94557.00
2023-02-13T19:44:07.480Z,94557.00
2023-02-13T19:46:07.566Z,94563.00
2023-02-13T19:47:07.586Z,94563.00
2023-02-13T19:48:07.642Z,94566.00
2023-02-13T19:49:07.706Z,94566.00
2023-02-13T21:50:15.358Z,94572.00
2023-02-13T21:53:15.349Z,94576.00
2023-02-13T21:58:15.166Z,94568.00
2023-02-13T21:59:15.230Z,94566.00
2023-02-13T22:00:15.297Z,94566.00
2023-02-13T22:01:25.387Z,94566.00
2023-02-13T22:03:15.395Z,94566.00
2023-02-13T22:04:15.423Z,94572.00
2023-02-13T22:05:15.457Z,94570.00
2023-02-13T22:06:15.862Z,94570.00
2023-02-13T22:07:15.506Z,94568.00
2023-02-13T22:08:15.533Z,94572.00
2023-02-13T22:09:15.572Z,94570.00
2023-02-13T22:10:15.588Z,94568.00
2023-02-13T22:11:15.619Z,94570.00
2023-02-13T22:12:15.656Z,94568.00
2023-02-13T22:13:15.769Z,94570.00
2023-02-13T22:14:15.720Z,94572.00
2023-02-13T22:38:17.207Z,94566.00
